Time;durP1;ratioP1;P1;durP2;ratioP2;P2;SDS_P1;SDS_P2;PMS_P1;PMS_P2;Temp;Humidity;BMP_temperature;BMP_pressure;BME280_temperature;BME280_humidity;BME280_pressure;Samples;Min_cycle;Max_cycle;Signal;HPM_P1;HPM_P2
2023/07/28 00:00:20;;;;;;;3.77;2.53;;;15.70;37.60;;;;;;4972666;28;20209;-69
2023/07/28 00:02:46;;;;;;;4.63;2.87;;;15.60;38.30;;;;;;4987036;28;20237;-70
2023/07/28 00:05:11;;;;;;;3.73;2.60;;;15.60;38.70;;;;;;4972544;28;20181;-69
2023/07/28 00:07:37;;;;;;;4.50;2.70;;;15.60;38.90;;;;;;4987462;28;20181;-69
2023/07/28 00:10:03;;;;;;;5.30;2.90;;;15.50;39.50;;;;;;4972518;28;20287;-70
2023/07/28 00:12:28;;;;;;;4.43;2.60;;;15.50;38.90;;;;;;4972002;28;20228;-70
2023/07/28 00:14:54;;;;;;;4.80;2.67;;;15.50;39.50;;;;;;4972535;28;20413;-71
2023/07/28 00:17:19;;;;;;;2.50;2.07;;;15.50;39.70;;;;;;4972510;28;20170;-69
2023/07/28 00:19:45;;;;;;;3.80;3.40;;;15.40;40.40;;;;;;4987345;28;20240;-69
2023/07/28 00:22:10;;;;;;;3.33;2.40;;;15.40;41.00;;;;;;4971706;28;20272;-69
2023/07/28 00:24:36;;;;;;;4.53;3.10;;;15.40;41.00;;;;;;4975980;28;20193;-69
2023/07/28 00:27:01;;;;;;;3.30;2.77;;;15.40;40.50;;;;;;4975963;28;20181;-67
2023/07/28 00:29:27;;;;;;;4.07;2.83;;;15.40;41.80;;;;;;4990798;28;20192;-67
2023/07/28 00:31:53;;;;;;;4.50;2.77;;;15.30;42.00;;;;;;4975327;28;20229;-68
2023/07/28 00:34:18;;;;;;;3.30;3.00;;;15.40;42.80;;;;;;4975747;28;20177;-68
2023/07/28 00:36:44;;;;;;;3.90;2.87;;;15.40;42.90;;;;;;4975789;28;20588;-68
2023/07/28 00:39:09;;;;;;;3.63;2.60;;;15.40;43.70;;;;;;4990677;28;20185;-68
2023/07/28 00:41:35;;;;;;;3.43;2.50;;;15.30;43.20;;;;;;4975533;28;20193;-68
2023/07/28 00:44:00;;;;;;;5.00;3.00;;;15.30;43.70;;;;;;4990656;28;20208;-68
2023/07/28 00:46:26;;;;;;;5.00;3.27;;;15.30;44.50;;;;;;4990538;28;20186;-67
2023/07/28 00:48:52;;;;;;;3.73;2.60;;;15.30;43.20;;;;;;4975469;28;20260;-68
2023/07/28 00:51:17;;;;;;;3.73;2.80;;;15.20;44.10;;;;;;4990379;28;20744;-68
2023/07/28 00:53:43;;;;;;;3.33;2.13;;;15.30;49.90;;;;;;4975182;28;20467;-68
2023/07/28 00:56:10;;;;;;;3.37;2.50;;;15.20;43.30;;;;;;4975663;28;20232;-68
2023/07/28 00:58:36;;;;;;;4.07;3.03;;;15.30;44.60;;;;;;4975469;28;20231;-69
2023/07/28 01:01:02;;;;;;;3.30;3.00;;;15.30;45.40;;;;;;4975309;28;20452;-70
2023/07/28 01:03:29;;;;;;;5.27;2.57;;;15.20;46.60;;;;;;4974981;28;20197;-69
2023/07/28 01:06:33;;;;;;;7.90;2.10;;;15.20;46.70;;;;;;4975318;28;20433;-68
2023/07/28 01:09:03;;;;;;;3.40;2.53;;;15.20;47.90;;;;;;4974761;28;20424;-67
2023/07/28 01:11:30;;;;;;;3.50;2.63;;;15.20;49.70;;;;;;4973865;28;20476;-68
2023/07/28 01:13:55;;;;;;;3.50;2.40;;;15.20;45.40;;;;;;4981532;23;20616;-71
2023/07/28 01:16:21;;;;;;;3.83;2.90;;;15.20;46.10;;;;;;4955701;29;20496;-70
2023/07/28 01:18:47;;;;;;;3.33;2.70;;;15.20;46.90;;;;;;4955571;29;20237;-71
2023/07/28 01:21:32;;;;;;;3.87;2.77;;;15.20;46.00;;;;;;4955562;29;20241;-71
2023/07/28 01:24:21;;;;;;;3.60;2.50;;;15.10;42.80;;;;;;4955481;29;20675;-70
2023/07/28 01:26:48;;;;;;;4.17;3.77;;;15.10;43.60;;;;;;4955390;29;20414;-71
2023/07/28 01:29:15;;;;;;;3.70;2.83;;;15.10;44.60;;;;;;4955391;29;20429;-71
2023/07/28 01:31:41;;;;;;;6.70;4.43;;;15.10;45.40;;;;;;4954960;29;20484;-71
2023/07/28 01:34:06;;;;;;;4.50;3.93;;;15.00;45.80;;;;;;4954309;28;20955;-71
2023/07/28 01:36:32;;;;;;;5.80;4.30;;;15.00;45.80;;;;;;4955625;29;20178;-71
2023/07/28 01:38:57;;;;;;;4.77;3.57;;;15.00;47.30;;;;;;4955617;29;20236;-70
2023/07/28 01:41:23;;;;;;;4.83;3.97;;;15.00;48.40;;;;;;4955168;29;20320;-71
2023/07/28 01:43:49;;;;;;;5.50;3.50;;;15.00;48.40;;;;;;4954893;29;20249;-71
2023/07/28 01:46:14;;;;;;;2.90;2.60;;;15.10;48.30;;;;;;4954997;29;20178;-71
2023/07/28 01:48:40;;;;;;;4.23;3.23;;;15.00;48.80;;;;;;4955145;29;20661;-71
2023/07/28 01:51:05;;;;;;;4.50;2.60;;;15.10;48.00;;;;;;4954949;29;20614;-71
2023/07/28 01:53:31;;;;;;;4.00;2.70;;;15.10;48.30;;;;;;4954601;29;20205;-71
2023/07/28 01:55:56;;;;;;;2.93;2.50;;;15.10;48.70;;;;;;4954964;29;20180;-71
2023/07/28 01:58:22;;;;;;;4.30;2.40;;;15.10;49.00;;;;;;4954843;29;20182;-71
2023/07/28 02:00:47;;;;;;;6.43;3.10;;;15.10;48.10;;;;;;4955252;29;20655;-71
2023/07/28 02:03:13;;;;;;;4.83;3.03;;;15.10;48.50;;;;;;4954489;29;20233;-71
2023/07/28 02:05:38;;;;;;;3.90;2.40;;;15.10;49.10;;;;;;4954890;29;20512;-71
2023/07/28 02:08:04;;;;;;;3.70;2.63;;;15.10;48.70;;;;;;4954615;29;20190;-71
2023/07/28 02:10:30;;;;;;;4.80;2.93;;;15.20;51.60;;;;;;4954598;29;20213;-71
2023/07/28 02:12:56;;;;;;;3.47;2.43;;;15.20;45.90;;;;;;4954223;29;20352;-71
2023/07/28 02:15:21;;;;;;;3.70;2.33;;;15.20;45.80;;;;;;4954784;29;20245;-71
2023/07/28 02:17:47;;;;;;;4.30;2.93;;;15.20;44.90;;;;;;4954677;29;20181;-71
2023/07/28 02:20:15;;;;;;;3.23;2.37;;;15.20;45.50;;;;;;4954517;29;20178;-71
2023/07/28 02:22:41;;;;;;;4.20;2.87;;;15.20;45.70;;;;;;4954223;29;20209;-71
2023/07/28 02:25:07;;;;;;;7.57;2.83;;;15.10;45.30;;;;;;4954673;29;20422;-71
2023/07/28 02:27:32;;;;;;;3.40;2.07;;;15.10;46.60;;;;;;4954429;29;20500;-71
2023/07/28 02:29:58;;;;;;;4.70;2.37;;;15.10;44.50;;;;;;4954246;29;20584;-71
2023/07/28 02:32:24;;;;;;;5.50;2.30;;;15.10;47.70;;;;;;4953982;29;20547;-71
2023/07/28 02:34:49;;;;;;;4.37;2.80;;;15.10;46.90;;;;;;4969225;28;20180;-71
2023/07/28 02:37:15;;;;;;;3.43;2.57;;;15.10;47.30;;;;;;4954134;29;20186;-71
2023/07/28 02:39:41;;;;;;;3.90;3.20;;;15.00;47.50;;;;;;4954254;29;20173;-72
2023/07/28 02:42:07;;;;;;;4.43;2.40;;;15.10;47.00;;;;;;4954405;29;20920;-72
2023/07/28 02:44:32;;;;;;;3.47;2.40;;;15.10;41.30;;;;;;4953487;28;20184;-71
2023/07/28 02:46:58;;;;;;;3.40;2.60;;;15.10;41.70;;;;;;4953134;28;20188;-72
2023/07/28 02:49:23;;;;;;;3.27;2.50;;;15.10;40.70;;;;;;4954360;29;20207;-72
2023/07/28 02:51:49;;;;;;;3.40;2.63;;;15.10;41.60;;;;;;4943651;29;20687;-71
2023/07/28 02:54:14;;;;;;;3.17;2.33;;;15.00;43.40;;;;;;4935882;29;20685;-71
2023/07/28 02:56:40;;;;;;;2.87;2.50;;;15.00;43.90;;;;;;4936231;29;20179;-72
2023/07/28 02:59:05;;;;;;;6.00;3.47;;;14.90;42.40;;;;;;4936070;29;20258;-71
2023/07/28 03:01:35;;;;;;;2.63;2.03;;;15.00;44.60;;;;;;4935908;29;20198;-71
2023/07/28 03:04:03;;;;;;;4.73;2.77;;;14.90;44.60;;;;;;4936491;29;20242;-72
2023/07/28 03:06:29;;;;;;;3.70;2.23;;;14.90;43.60;;;;;;4936954;29;20916;-71
2023/07/28 03:08:55;;;;;;;4.10;3.13;;;14.90;45.10;;;;;;4934788;29;20429;-69
2023/07/28 03:11:20;;;;;;;4.20;2.63;;;14.90;45.70;;;;;;4934324;29;20210;-69
2023/07/28 03:13:46;;;;;;;4.87;3.30;;;14.90;45.00;;;;;;4934342;29;20217;-70
2023/07/28 03:16:12;;;;;;;5.80;3.00;;;14.80;45.70;;;;;;4934416;29;20266;-70
2023/07/28 03:18:37;;;;;;;3.80;2.53;;;14.80;43.30;;;;;;4934394;29;20555;-70
2023/07/28 03:21:03;;;;;;;4.23;2.87;;;14.80;44.10;;;;;;4934339;29;20179;-69
2023/07/28 03:23:28;;;;;;;3.53;2.73;;;14.80;46.30;;;;;;4934093;29;20213;-69
2023/07/28 03:25:54;;;;;;;3.40;2.70;;;14.90;47.20;;;;;;4934345;29;20897;-69
2023/07/28 03:28:20;;;;;;;4.60;3.03;;;14.90;45.40;;;;;;4934625;29;20599;-70
2023/07/28 03:30:46;;;;;;;3.77;3.00;;;14.90;46.80;;;;;;4934249;29;20198;-70
2023/07/28 03:33:11;;;;;;;4.20;2.80;;;15.00;45.80;;;;;;4934103;29;20197;-70
2023/07/28 03:35:37;;;;;;;2.90;2.00;;;15.10;45.90;;;;;;4948888;29;20426;-70
2023/07/28 03:38:02;;;;;;;3.50;2.83;;;15.20;42.70;;;;;;4934295;29;20187;-70
2023/07/28 03:40:28;;;;;;;3.53;2.03;;;15.30;44.00;;;;;;4944565;29;20174;-71
2023/07/28 03:42:54;;;;;;;4.10;2.80;;;15.40;42.60;;;;;;4962346;28;20209;-70
2023/07/28 03:45:19;;;;;;;3.60;2.50;;;15.50;42.70;;;;;;4972549;28;20190;-69
2023/07/28 03:47:45;;;;;;;4.40;3.60;;;15.60;42.10;;;;;;4972556;28;20548;-70
2023/07/28 03:50:10;;;;;;;8.80;2.60;;;15.70;41.50;;;;;;4972317;28;20288;-71
2023/07/28 03:52:36;;;;;;;2.83;2.30;;;15.70;40.70;;;;;;4972249;28;20244;-70
2023/07/28 03:55:02;;;;;;;3.00;2.63;;;15.70;40.50;;;;;;4972478;28;20177;-70
2023/07/28 03:57:27;;;;;;;2.93;2.37;;;15.70;39.40;;;;;;4973719;28;20173;-70
2023/07/28 03:59:53;;;;;;;3.43;2.43;;;15.80;39.90;;;;;;4975431;28;20428;-70
2023/07/28 04:02:18;;;;;;;2.60;1.80;;;15.90;40.20;;;;;;4975898;28;20181;-71
2023/07/28 04:04:44;;;;;;;4.63;2.80;;;15.90;40.10;;;;;;4974777;28;20697;-70
2023/07/28 04:07:09;;;;;;;4.27;3.00;;;16.00;37.50;;;;;;4976124;28;20267;-70
2023/07/28 04:09:35;;;;;;;3.60;2.83;;;16.00;36.30;;;;;;4976041;28;20248;-70
2023/07/28 04:12:01;;;;;;;2.80;2.30;;;16.10;36.40;;;;;;4975557;28;20209;-71
2023/07/28 04:14:26;;;;;;;4.00;2.30;;;16.20;36.20;;;;;;4975830;28;20217;-70
2023/07/28 04:16:52;;;;;;;3.20;2.47;;;16.30;35.10;;;;;;4975865;28;20232;-71
2023/07/28 04:19:17;;;;;;;3.43;2.47;;;16.40;35.30;;;;;;4975853;28;20173;-71
2023/07/28 04:21:43;;;;;;;3.20;2.17;;;16.50;35.20;;;;;;4974084;28;20181;-70
2023/07/28 04:24:09;;;;;;;3.70;2.60;;;16.60;35.60;;;;;;4975852;28;20209;-71
2023/07/28 04:26:35;;;;;;;2.57;2.00;;;16.70;32.90;;;;;;4975603;28;20217;-70
2023/07/28 04:29:01;;;;;;;2.50;2.30;;;16.80;31.70;;;;;;4975592;28;20452;-70
2023/07/28 04:31:27;;;;;;;2.77;2.47;;;17.00;31.50;;;;;;4975202;28;20449;-70
2023/07/28 04:33:52;;;;;;;5.03;2.97;;;17.10;29.80;;;;;;4975294;28;20483;-70
2023/07/28 04:36:18;;;;;;;4.27;3.27;;;17.30;28.00;;;;;;4975502;28;20247;-70
2023/07/28 04:38:43;;;;;;;4.23;2.70;;;17.30;28.00;;;;;;4975759;28;20205;-71
2023/07/28 04:41:09;;;;;;;3.60;2.60;;;17.30;27.60;;;;;;4959210;28;20186;-71
2023/07/28 04:43:35;;;;;;;2.23;1.87;;;17.30;27.00;;;;;;4955927;29;20202;-71
2023/07/28 04:46:00;;;;;;;3.60;2.90;;;17.30;27.20;;;;;;4955951;29;20196;-70
2023/07/28 04:48:26;;;;;;;3.93;3.50;;;17.50;26.40;;;;;;4955936;29;20174;-71
2023/07/28 04:50:52;;;;;;;4.30;3.00;;;17.60;25.90;;;;;;4955914;29;20210;-70
2023/07/28 04:53:18;;;;;;;3.97;2.60;;;17.60;25.70;;;;;;4955556;29;20440;-70
2023/07/28 04:55:43;;;;;;;5.97;2.30;;;17.60;25.50;;;;;;4954497;29;20200;-70
2023/07/28 04:58:09;;;;;;;4.17;2.80;;;17.70;25.60;;;;;;4956022;29;20174;-70
2023/07/28 05:00:34;;;;;;;3.03;2.13;;;17.70;25.50;;;;;;4955772;29;20594;-71
2023/07/28 05:03:00;;;;;;;4.10;3.13;;;17.80;25.90;;;;;;4955374;29;20614;-70
2023/07/28 05:05:25;;;;;;;4.53;3.50;;;17.80;26.70;;;;;;4955709;29;20189;-71
2023/07/28 05:07:51;;;;;;;6.70;2.87;;;17.90;26.70;;;;;;4955778;28;20205;-71
2023/07/28 05:10:17;;;;;;;3.67;2.40;;;18.00;25.00;;;;;;4954536;29;20197;-71
2023/07/28 05:12:42;;;;;;;3.50;2.73;;;18.00;24.90;;;;;;4955177;29;20210;-70
2023/07/28 05:15:11;;;;;;;5.13;2.73;;;18.10;24.60;;;;;;4955809;29;20175;-70
2023/07/28 05:17:37;;;;;;;4.00;3.20;;;18.10;25.20;;;;;;4955378;29;20173;-70
2023/07/28 05:20:03;;;;;;;7.80;3.63;;;18.10;25.50;;;;;;4955518;29;20520;-71
2023/07/28 05:22:29;;;;;;;3.27;2.63;;;18.10;27.20;;;;;;4955125;29;20532;-70
2023/07/28 05:24:54;;;;;;;5.53;2.20;;;18.00;26.30;;;;;;4955330;29;20414;-70
2023/07/28 05:27:20;;;;;;;3.67;3.10;;;18.00;25.50;;;;;;4955288;29;20178;-73
2023/07/28 05:29:45;;;;;;;5.10;2.50;;;18.00;25.20;;;;;;4955231;29;20181;-70
2023/07/28 05:32:11;;;;;;;4.37;2.53;;;18.00;25.80;;;;;;4969551;28;20181;-70
2023/07/28 05:34:36;;;;;;;2.80;2.30;;;17.90;24.20;;;;;;4955268;29;20190;-70
2023/07/28 05:37:02;;;;;;;7.10;2.23;;;18.00;23.80;;;;;;4955089;29;20288;-70
2023/07/28 05:39:28;;;;;;;11.23;3.17;;;18.00;23.90;;;;;;4954617;29;20650;-70
2023/07/28 05:41:54;;;;;;;3.20;2.30;;;18.00;23.80;;;;;;4954541;29;20197;-70
2023/07/28 05:44:19;;;;;;;3.30;2.83;;;18.00;23.80;;;;;;4954968;29;20198;-70
2023/07/28 05:46:45;;;;;;;9.07;2.90;;;18.10;22.80;;;;;;4954701;29;20197;-70
2023/07/28 05:49:11;;;;;;;2.83;2.37;;;18.10;22.50;;;;;;4954871;29;20189;-70
2023/07/28 05:51:36;;;;;;;7.50;2.57;;;18.10;22.70;;;;;;4969480;28;20469;-70
2023/07/28 05:54:02;;;;;;;6.10;3.70;;;18.20;22.90;;;;;;4954066;29;20714;-70
2023/07/28 05:56:27;;;;;;;6.93;2.93;;;18.20;23.20;;;;;;4949286;28;20205;-70
2023/07/28 05:58:53;;;;;;;5.13;2.90;;;18.30;24.40;;;;;;4954617;29;20189;-74
2023/07/28 06:01:19;;;;;;;5.23;3.30;;;18.40;25.60;;;;;;4953470;29;20185;-70
2023/07/28 06:03:45;;;;;;;4.00;2.60;;;18.40;25.10;;;;;;4954516;29;20644;-70
2023/07/28 06:06:10;;;;;;;7.53;3.57;;;18.40;25.30;;;;;;4954089;29;20436;-70
2023/07/28 06:08:36;;;;;;;5.60;3.30;;;18.50;25.30;;;;;;4954601;29;20660;-70
2023/07/28 06:11:05;;;;;;;4.53;3.73;;;18.60;25.60;;;;;;4954588;29;20214;-70
2023/07/28 06:13:32;;;;;;;6.90;3.10;;;18.60;25.80;;;;;;4954231;29;20221;-70
2023/07/28 06:15:58;;;;;;;3.67;2.50;;;18.60;26.90;;;;;;4954203;29;20479;-70
2023/07/28 06:18:24;;;;;;;5.20;2.97;;;18.70;27.30;;;;;;4954085;28;20457;-70
2023/07/28 06:20:50;;;;;;;11.67;5.17;;;18.80;26.50;;;;;;4954179;28;20425;-70
2023/07/28 06:23:16;;;;;;;14.97;4.97;;;18.80;26.40;;;;;;4954130;28;20970;-70
2023/07/28 06:25:44;;;;;;;12.77;3.50;;;18.90;25.60;;;;;;4954193;28;20186;-70
2023/07/28 06:28:10;;;;;;;3.50;3.00;;;19.10;25.50;;;;;;4954362;28;20302;-70
2023/07/28 06:30:37;;;;;;;11.17;3.73;;;19.30;23.80;;;;;;4954185;28;20481;-70
2023/07/28 06:33:03;;;;;;;9.60;3.30;;;19.50;21.00;;;;;;4953884;28;20435;-70
2023/07/28 06:35:28;;;;;;;6.47;3.20;;;19.70;20.70;;;;;;4954045;28;20764;-70
2023/07/28 06:37:54;;;;;;;5.60;3.70;;;19.80;18.80;;;;;;4954110;29;20416;-70
2023/07/28 06:40:20;;;;;;;6.93;3.53;;;19.70;19.10;;;;;;4954100;29;20714;-70
2023/07/28 06:42:46;;;;;;;6.50;2.97;;;19.60;19.70;;;;;;4953795;29;20449;-69
2023/07/28 06:45:11;;;;;;;6.10;2.93;;;19.40;20.60;;;;;;4951878;29;20265;-72
2023/07/28 06:47:38;;;;;;;3.50;2.57;;;19.40;21.70;;;;;;4954079;28;20465;-70
2023/07/28 06:50:05;;;;;;;6.33;4.10;;;19.40;22.40;;;;;;4953981;28;20257;-69
2023/07/28 06:52:30;;;;;;;6.13;3.03;;;19.30;23.20;;;;;;4953520;28;20425;-70
2023/07/28 06:54:56;;;;;;;80.07;37.90;;;19.10;24.00;;;;;;4953754;28;20918;-70
2023/07/28 06:57:21;;;;;;;57.33;26.00;;;19.30;24.20;;;;;;4953842;29;20182;-70
2023/07/28 06:59:48;;;;;;;82.60;35.57;;;19.40;23.90;;;;;;4953115;29;20188;-70
2023/07/28 07:02:13;;;;;;;18.53;8.77;;;19.50;26.20;;;;;;4953336;29;20185;-70
2023/07/28 07:04:39;;;;;;;5.63;3.00;;;19.50;22.40;;;;;;4951545;29;20433;-70
2023/07/28 07:07:05;;;;;;;10.40;4.37;;;19.30;20.20;;;;;;4951568;29;20193;-74
2023/07/28 07:09:30;;;;;;;5.00;3.03;;;19.40;21.90;;;;;;4953037;29;20209;-73
2023/07/28 07:11:56;;;;;;;4.50;3.33;;;19.70;20.90;;;;;;4952458;29;20688;-71
2023/07/28 07:14:21;;;;;;;4.37;2.77;;;19.80;19.90;;;;;;4952336;29;20676;-72
2023/07/28 07:16:49;;;;;;;9.40;4.10;;;20.00;19.80;;;;;;4952931;28;20186;-71
2023/07/28 07:19:15;;;;;;;10.60;5.90;;;20.30;19.80;;;;;;4952948;29;20205;-74
2023/07/28 07:21:41;;;;;;;7.43;4.30;;;20.50;17.90;;;;;;4953308;29;20425;-72
2023/07/28 07:24:07;;;;;;;4.93;3.43;;;20.80;16.30;;;;;;4953204;29;20457;-72
2023/07/28 07:26:32;;;;;;;8.03;4.50;;;20.90;15.10;;;;;;4953165;29;20418;-72
2023/07/28 07:28:58;;;;;;;6.80;4.57;;;21.00;14.40;;;;;;4952925;29;20593;-72
2023/07/28 07:31:24;;;;;;;6.77;5.20;;;21.20;15.40;;;;;;4953060;28;20218;-72
2023/07/28 07:33:50;;;;;;;9.23;3.80;;;21.50;13.40;;;;;;4956732;28;20441;-72
2023/07/28 07:36:17;;;;;;;4.53;2.67;;;21.90;11.90;;;;;;4945859;28;20202;-72
2023/07/28 07:38:45;;;;;;;6.10;3.90;;;22.30;12.60;;;;;;4949156;29;20425;-71
2023/07/28 07:41:12;;;;;;;9.53;6.27;;;22.50;9.30;;;;;;4964978;28;20459;-72
2023/07/28 07:43:38;;;;;;;6.90;4.23;;;22.80;9.50;;;;;;4962180;28;20450;-72
2023/07/28 07:46:04;;;;;;;8.33;4.10;;;22.80;7.60;;;;;;4956837;29;20417;-71
2023/07/28 07:48:30;;;;;;;13.37;6.10;;;22.80;7.20;;;;;;4956571;29;20950;-72
2023/07/28 07:50:55;;;;;;;44.40;12.57;;;22.80;7.00;;;;;;4956701;29;20209;-72
2023/07/28 07:53:21;;;;;;;18.40;7.43;;;22.80;5.80;;;;;;4956577;29;20958;-73
2023/07/28 07:55:47;;;;;;;5.30;2.83;;;22.80;6.30;;;;;;4956554;29;20190;-71
2023/07/28 07:58:13;;;;;;;4.90;3.30;;;22.80;7.00;;;;;;4955885;29;20197;-72
2023/07/28 08:00:38;;;;;;;4.10;3.13;;;22.80;5.70;;;;;;4956434;29;20429;-72
2023/07/28 08:03:05;;;;;;;5.87;3.00;;;22.40;6.70;;;;;;4956077;29;20766;-72
2023/07/28 08:05:30;;;;;;;3.47;2.80;;;22.10;8.20;;;;;;4948550;28;20209;-72
2023/07/28 08:07:56;;;;;;;3.13;2.67;;;22.40;7.90;;;;;;4942336;29;20437;-72
2023/07/28 08:10:22;;;;;;;6.60;2.87;;;22.40;7.60;;;;;;4956186;28;20265;-72
2023/07/28 08:12:48;;;;;;;6.30;3.47;;;22.60;7.80;;;;;;4956056;28;21034;-71
2023/07/28 08:15:14;;;;;;;4.30;3.57;;;22.90;6.50;;;;;;4955898;28;20421;-71
2023/07/28 08:17:40;;;;;;;4.50;3.13;;;23.00;5.40;;;;;;4955816;28;20483;-71
2023/07/28 08:20:07;;;;;;;4.20;3.80;;;23.40;3.60;;;;;;4956306;29;20440;-71
2023/07/28 08:22:33;;;;;;;6.20;3.20;;;23.90;4.40;;;;;;4955901;29;20303;-71
2023/07/28 08:24:58;;;;;;;4.13;2.83;;;24.60;1.50;;;;;;4956121;29;20505;-71
2023/07/28 08:27:24;;;;;;;3.93;3.57;;;25.20;1.00;;;;;;4955966;29;20265;-71
2023/07/28 08:29:49;;;;;;;4.37;3.43;;;25.80;1.00;;;;;;4956131;28;20454;-71
2023/07/28 08:32:15;;;;;;;4.97;3.60;;;26.10;1.00;;;;;;4955715;28;20280;-70
2023/07/28 08:34:41;;;;;;;5.57;3.57;;;26.70;1.00;;;;;;4956078;28;20225;-71
2023/07/28 08:37:07;;;;;;;9.43;4.50;;;26.70;1.00;;;;;;4955711;28;20208;-71
2023/07/28 08:39:33;;;;;;;13.13;4.77;;;26.60;1.00;;;;;;4956164;28;20237;-72
2023/07/28 08:42:02;;;;;;;5.77;3.67;;;26.50;1.00;;;;;;4955913;28;20190;-71
2023/07/28 08:44:32;;;;;;;4.17;3.77;;;26.50;1.00;;;;;;4955817;28;20973;-71
2023/07/28 08:47:03;;;;;;;4.20;3.67;;;27.90;1.00;;;;;;4956099;28;20448;-71
2023/07/28 08:49:31;;;;;;;3.90;3.60;;;28.70;1.00;;;;;;4956204;29;20413;-72
2023/07/28 08:52:00;;;;;;;4.07;3.60;;;30.00;1.00;;;;;;4955800;29;20468;-71
2023/07/28 08:54:26;;;;;;;3.63;3.33;;;30.00;1.00;;;;;;4955792;29;20453;-71
2023/07/28 08:56:52;;;;;;;3.50;3.20;;;29.20;1.00;;;;;;4955893;28;20426;-71
2023/07/28 08:59:25;;;;;;;4.07;3.50;;;29.00;1.00;;;;;;4955987;28;20501;-71
2023/07/28 09:01:51;;;;;;;4.80;4.23;;;29.00;1.00;;;;;;4955775;28;20417;-71
2023/07/28 09:04:16;;;;;;;3.40;3.13;;;28.70;1.00;;;;;;4955806;28;20476;-71
2023/07/28 09:06:46;;;;;;;3.70;3.40;;;27.90;1.00;;;;;;4955880;29;20237;-71
2023/07/28 09:09:11;;;;;;;3.30;3.00;;;27.40;1.00;;;;;;4955791;29;20182;-71
2023/07/28 09:11:49;;;;;;;5.60;3.27;;;27.60;1.00;;;;;;4955382;29;20563;-71
2023/07/28 09:14:16;;;;;;;3.53;3.23;;;27.80;1.00;;;;;;4955494;29;20296;-71
2023/07/28 09:16:45;;;;;;;4.47;3.67;;;28.00;1.00;;;;;;4955769;28;20473;-71
2023/07/28 09:19:11;;;;;;;3.47;3.17;;;28.00;1.00;;;;;;4955690;28;20421;-71
2023/07/28 09:21:39;;;;;;;3.40;3.10;;;28.00;1.00;;;;;;4955663;28;20425;-70
2023/07/28 09:24:06;;;;;;;3.90;3.40;;;27.50;1.00;;;;;;4955724;28;20475;-70
2023/07/28 09:26:45;;;;;;;5.20;3.40;;;27.40;1.00;;;;;;4955622;29;20450;-70
2023/07/28 09:29:19;;;;;;;4.00;3.60;;;26.50;1.00;;;;;;4955514;29;20417;-69
2023/07/28 09:31:49;;;;;;;3.70;3.27;;;26.00;1.00;;;;;;4955094;29;20461;-70
2023/07/28 09:34:26;;;;;;;7.20;3.57;;;26.30;1.00;;;;;;4955171;29;20521;-70
2023/07/28 09:36:54;;;;;;;3.53;3.23;;;26.80;1.00;;;;;;4955395;29;20421;-70
2023/07/28 09:39:20;;;;;;;3.37;3.07;;;27.00;1.00;;;;;;4955247;29;20589;-70
2023/07/28 09:41:46;;;;;;;3.97;3.60;;;27.20;1.00;;;;;;4953777;29;20465;-71
2023/07/28 09:44:12;;;;;;;3.50;3.20;;;27.20;1.00;;;;;;4954850;29;20491;-70
2023/07/28 09:46:58;;;;;;;7.37;5.80;;;27.30;1.00;;;;;;4955397;29;20649;-70
2023/07/28 09:49:35;;;;;;;4.30;3.90;;;27.50;1.00;;;;;;4955412;29;20441;-70
2023/07/28 09:52:04;;;;;;;3.93;3.63;;;28.30;1.00;;;;;;4954772;29;20562;-70
2023/07/28 09:54:32;;;;;;;5.33;4.17;;;28.90;1.00;;;;;;4954331;28;20456;-70
2023/07/28 09:56:59;;;;;;;4.33;3.93;;;29.40;1.00;;;;;;4954994;29;20456;-70
2023/07/28 09:59:39;;;;;;;3.90;3.60;;;29.50;1.00;;;;;;4955157;29;20477;-70
2023/07/28 10:02:05;;;;;;;5.20;3.67;;;28.90;1.00;;;;;;4955000;29;20915;-71
2023/07/28 10:04:32;;;;;;;3.83;3.53;;;29.20;1.00;;;;;;4955181;29;20520;-70
2023/07/28 10:06:57;;;;;;;3.83;3.53;;;29.60;1.00;;;;;;4954994;29;20428;-71
2023/07/28 10:09:28;;;;;;;4.10;3.70;;;29.20;1.00;;;;;;4954845;29;20504;-70
2023/07/28 10:11:55;;;;;;;4.00;3.13;;;28.40;1.00;;;;;;4954493;29;20225;-71
2023/07/28 10:14:30;;;;;;;3.73;3.43;;;28.00;1.00;;;;;;4954588;28;20519;-70
2023/07/28 10:16:57;;;;;;;4.30;3.90;;;27.40;1.00;;;;;;4954369;28;22331;-69
2023/07/28 10:19:26;;;;;;;4.20;3.50;;;27.10;1.00;;;;;;4954723;28;20418;-69
2023/07/28 10:21:59;;;;;;;3.50;3.20;;;26.80;1.00;;;;;;4954162;28;20940;-70
2023/07/28 10:24:58;;;;;;;5.00;4.47;;;26.50;1.00;;;;;;4954616;28;20502;-70
2023/07/28 10:27:45;;;;;;;6.03;3.40;;;26.30;1.00;;;;;;4954512;28;20835;-70
2023/07/28 10:30:13;;;;;;;3.53;3.10;;;26.70;1.00;;;;;;4954397;28;20421;-70
2023/07/28 10:32:41;;;;;;;3.73;3.43;;;27.00;1.00;;;;;;4953936;28;20457;-70
2023/07/28 10:35:08;;;;;;;3.37;3.07;;;27.30;1.00;;;;;;4954690;28;20437;-70
2023/07/28 10:37:35;;;;;;;4.57;3.67;;;27.70;1.00;;;;;;4954441;28;20425;-70
2023/07/28 10:40:30;;;;;;;3.87;3.40;;;27.70;1.00;;;;;;4954345;28;20418;-69
2023/07/28 10:42:56;;;;;;;4.73;3.63;;;27.40;1.00;;;;;;4953615;28;20460;-69
2023/07/28 10:45:23;;;;;;;3.23;2.97;;;27.20;1.00;;;;;;4954213;28;20433;-70
2023/07/28 10:47:49;;;;;;;3.80;3.50;;;27.40;1.00;;;;;;4954202;29;20414;-71
2023/07/28 10:50:15;;;;;;;4.00;3.60;;;27.10;1.00;;;;;;4954064;28;20509;-71
2023/07/28 10:52:42;;;;;;;4.03;3.63;;;27.10;1.00;;;;;;4953551;29;20460;-71
2023/07/28 10:55:14;;;;;;;3.43;3.17;;;27.80;1.00;;;;;;4953999;29;20542;-71
2023/07/28 10:57:44;;;;;;;4.00;3.70;;;28.30;1.00;;;;;;4954070;29;20587;-70
2023/07/28 11:00:12;;;;;;;4.17;3.87;;;28.00;1.00;;;;;;4953994;28;20413;-72
2023/07/28 11:02:54;;;;;;;5.03;3.53;;;27.60;1.00;;;;;;4953304;28;20951;-69
2023/07/28 11:05:26;;;;;;;4.50;3.50;;;27.80;1.00;;;;;;4954113;28;20417;-71
2023/07/28 11:07:54;;;;;;;4.17;3.77;;;28.20;1.00;;;;;;4954456;28;20825;-71
2023/07/28 11:10:20;;;;;;;5.80;3.93;;;28.40;1.00;;;;;;4953980;28;20461;-71
2023/07/28 11:12:49;;;;;;;4.47;4.07;;;28.90;1.00;;;;;;4953236;28;20564;-71
2023/07/28 11:15:16;;;;;;;3.80;3.47;;;28.90;1.00;;;;;;4953797;28;20919;-71
2023/07/28 11:17:45;;;;;;;3.93;3.60;;;28.70;1.00;;;;;;4953258;29;20433;-71
2023/07/28 11:20:23;;;;;;;3.90;3.60;;;28.40;1.00;;;;;;4953731;29;20417;-71
2023/07/28 11:22:57;;;;;;;4.90;4.00;;;28.50;1.00;;;;;;4953476;28;20441;-71
2023/07/28 11:25:24;;;;;;;4.00;3.60;;;28.00;1.00;;;;;;4953514;29;20471;-69
2023/07/28 11:27:50;;;;;;;4.07;3.63;;;27.10;1.00;;;;;;4953517;28;20423;-68
2023/07/28 11:30:17;;;;;;;3.90;3.60;;;26.60;1.00;;;;;;4953749;28;20455;-69
2023/07/28 11:32:47;;;;;;;9.30;3.20;;;26.40;1.00;;;;;;4952683;28;20535;-70
2023/07/28 11:35:15;;;;;;;4.43;3.40;;;25.70;1.00;;;;;;4953150;28;20430;-70
2023/07/28 11:37:43;;;;;;;3.97;3.40;;;25.10;1.00;;;;;;4953384;28;20548;-69
2023/07/28 11:40:14;;;;;;;6.33;3.03;;;24.60;1.00;;;;;;4952533;29;20426;-70
2023/07/28 11:42:48;;;;;;;6.63;3.20;;;23.90;1.00;;;;;;4952748;29;20449;-70
2023/07/28 11:45:15;;;;;;;7.30;3.00;;;23.30;1.00;;;;;;4953355;29;20425;-70
2023/07/28 11:47:57;;;;;;;3.87;2.77;;;23.00;1.00;;;;;;4953669;28;20425;-68
2023/07/28 11:50:24;;;;;;;2.70;2.27;;;22.70;3.00;;;;;;4953565;28;20906;-68
2023/07/28 11:52:49;;;;;;;4.13;2.87;;;22.70;5.80;;;;;;4953104;28;20916;-69
2023/07/28 11:55:16;;;;;;;5.47;3.13;;;22.90;4.90;;;;;;4951965;28;20453;-68
2023/07/28 11:57:43;;;;;;;4.30;3.70;;;23.00;3.60;;;;;;4953261;29;20210;-68
2023/07/28 12:00:09;;;;;;;3.87;2.70;;;23.50;2.10;;;;;;4953567;29;20923;-68
2023/07/28 12:02:35;;;;;;;3.77;2.70;;;24.10;1.10;;;;;;4953092;29;20978;-68
2023/07/28 12:05:01;;;;;;;5.43;3.10;;;24.40;1.30;;;;;;4953031;29;20425;-68
2023/07/28 12:07:33;;;;;;;4.00;2.97;;;24.60;1.40;;;;;;4953149;29;20973;-68
2023/07/28 12:10:08;;;;;;;3.63;2.47;;;24.90;1.00;;;;;;4953336;28;20186;-68
2023/07/28 12:12:43;;;;;;;3.90;2.40;;;25.20;1.10;;;;;;4952959;28;20457;-69
2023/07/28 12:15:27;;;;;;;2.87;2.30;;;25.60;1.40;;;;;;4953238;28;20421;-69
2023/07/28 12:18:05;;;;;;;7.30;3.30;;;26.40;1.00;;;;;;4953717;28;20497;-69
2023/07/28 12:20:57;;;;;;;9.53;3.47;;;26.70;1.00;;;;;;4956941;29;20423;-68
2023/07/28 12:23:23;;;;;;;5.07;3.90;;;26.00;1.00;;;;;;4954821;28;20449;-68
2023/07/28 12:25:50;;;;;;;4.83;3.27;;;25.90;1.00;;;;;;4956572;29;20440;-68
2023/07/28 12:28:16;;;;;;;3.97;2.47;;;25.70;1.00;;;;;;4956788;29;20174;-68
2023/07/28 12:30:43;;;;;;;3.07;2.33;;;25.50;1.00;;;;;;4956404;29;20527;-68
2023/07/28 12:33:08;;;;;;;3.30;2.60;;;25.20;1.00;;;;;;4956320;29;20202;-67
2023/07/28 12:35:35;;;;;;;6.70;4.17;;;24.90;1.00;;;;;;4956535;29;21030;-68
2023/07/28 12:38:04;;;;;;;6.93;3.67;;;24.70;1.00;;;;;;4957127;28;20171;-70
2023/07/28 12:40:30;;;;;;;5.33;3.37;;;24.70;1.00;;;;;;4956026;28;20421;-69
2023/07/28 12:42:57;;;;;;;5.17;3.17;;;24.70;1.00;;;;;;4964313;28;20444;-69
2023/07/28 12:45:25;;;;;;;4.17;3.03;;;24.90;1.00;;;;;;4956576;28;20528;-69
2023/07/28 12:47:54;;;;;;;4.20;3.20;;;25.40;1.00;;;;;;4956273;29;20508;-70
2023/07/28 12:50:20;;;;;;;4.10;2.67;;;25.80;1.00;;;;;;4954902;29;20469;-70